sensor_id;sensor_type;location;lat;lon;timestamp;P1;durP1;ratioP1;P2;durP2;ratioP2
20531;SDS011;10424;52.102;8.084;2023-06-26T00:01:32;14.00;;;9.18;;
20531;SDS011;10424;52.102;8.084;2023-06-26T00:04:00;10.88;;;8.95;;
20531;SDS011;10424;52.102;8.084;2023-06-26T00:06:29;11.60;;;8.95;;
20531;SDS011;10424;52.102;8.084;2023-06-26T00:08:56;11.25;;;8.82;;
20531;SDS011;10424;52.102;8.084;2023-06-26T00:11:23;12.05;;;8.75;;
20531;SDS011;10424;52.102;8.084;2023-06-26T00:13:52;13.13;;;9.20;;
20531;SDS011;10424;52.102;8.084;2023-06-26T00:16:19;11.50;;;9.15;;
20531;SDS011;10424;52.102;8.084;2023-06-26T00:18:47;12.93;;;9.48;;
20531;SDS011;10424;52.102;8.084;2023-06-26T00:21:14;11.02;;;9.27;;
20531;SDS011;10424;52.102;8.084;2023-06-26T00:23:43;12.25;;;8.73;;
20531;SDS011;10424;52.102;8.084;2023-06-26T00:26:10;13.82;;;9.18;;
20531;SDS011;10424;52.102;8.084;2023-06-26T00:28:37;11.60;;;8.73;;
20531;SDS011;10424;52.102;8.084;2023-06-26T00:31:05;13.25;;;9.27;;
20531;SDS011;10424;52.102;8.084;2023-06-26T00:33:32;10.75;;;8.98;;
20531;SDS011;10424;52.102;8.084;2023-06-26T00:35:59;11.38;;;8.90;;
20531;SDS011;10424;52.102;8.084;2023-06-26T00:38:26;11.25;;;9.00;;
20531;SDS011;10424;52.102;8.084;2023-06-26T00:40:55;10.80;;;9.23;;
20531;SDS011;10424;52.102;8.084;2023-06-26T00:43:22;10.82;;;9.32;;
20531;SDS011;10424;52.102;8.084;2023-06-26T00:45:50;13.02;;;9.20;;
20531;SDS011;10424;52.102;8.084;2023-06-26T00:48:17;11.88;;;9.15;;
20531;SDS011;10424;52.102;8.084;2023-06-26T00:50:45;12.73;;;8.77;;
20531;SDS011;10424;52.102;8.084;2023-06-26T00:53:12;10.57;;;9.18;;
20531;SDS011;10424;52.102;8.084;2023-06-26T00:55:39;11.88;;;8.95;;
20531;SDS011;10424;52.102;8.084;2023-06-26T00:58:08;13.50;;;9.85;;
20531;SDS011;10424;52.102;8.084;2023-06-26T01:00:36;12.35;;;9.63;;
20531;SDS011;10424;52.102;8.084;2023-06-26T01:03:03;12.00;;;9.52;;
20531;SDS011;10424;52.102;8.084;2023-06-26T01:05:30;12.15;;;9.20;;
20531;SDS011;10424;52.102;8.084;2023-06-26T01:07:57;10.77;;;9.38;;
20531;SDS011;10424;52.102;8.084;2023-06-26T01:10:25;13.43;;;9.70;;
20531;SDS011;10424;52.102;8.084;2023-06-26T01:12:54;11.05;;;9.18;;
20531;SDS011;10424;52.102;8.084;2023-06-26T01:15:22;11.77;;;9.10;;
20531;SDS011;10424;52.102;8.084;2023-06-26T01:17:50;11.30;;;9.05;;
20531;SDS011;10424;52.102;8.084;2023-06-26T01:20:17;11.90;;;9.18;;
20531;SDS011;10424;52.102;8.084;2023-06-26T01:22:49;12.85;;;9.63;;
20531;SDS011;10424;52.102;8.084;2023-06-26T01:25:21;12.77;;;9.32;;
20531;SDS011;10424;52.102;8.084;2023-06-26T01:27:52;12.93;;;8.93;;
20531;SDS011;10424;52.102;8.084;2023-06-26T01:30:20;11.35;;;9.82;;
20531;SDS011;10424;52.102;8.084;2023-06-26T01:32:47;11.75;;;9.55;;
20531;SDS011;10424;52.102;8.084;2023-06-26T01:35:15;13.77;;;8.98;;
20531;SDS011;10424;52.102;8.084;2023-06-26T01:37:43;12.50;;;9.60;;
20531;SDS011;10424;52.102;8.084;2023-06-26T01:40:10;13.73;;;9.23;;
20531;SDS011;10424;52.102;8.084;2023-06-26T01:42:38;12.90;;;9.10;;
20531;SDS011;10424;52.102;8.084;2023-06-26T01:45:10;11.57;;;9.10;;
20531;SDS011;10424;52.102;8.084;2023-06-26T01:47:38;12.82;;;9.38;;
20531;SDS011;10424;52.102;8.084;2023-06-26T01:50:09;11.85;;;9.13;;
20531;SDS011;10424;52.102;8.084;2023-06-26T01:52:39;12.63;;;9.13;;
20531;SDS011;10424;52.102;8.084;2023-06-26T01:55:10;11.15;;;8.52;;
20531;SDS011;10424;52.102;8.084;2023-06-26T01:57:39;11.88;;;9.35;;
20531;SDS011;10424;52.102;8.084;2023-06-26T02:00:08;13.52;;;9.70;;
20531;SDS011;10424;52.102;8.084;2023-06-26T02:02:36;14.00;;;9.38;;
20531;SDS011;10424;52.102;8.084;2023-06-26T02:05:03;12.88;;;9.10;;
20531;SDS011;10424;52.102;8.084;2023-06-26T02:07:31;10.55;;;8.73;;
20531;SDS011;10424;52.102;8.084;2023-06-26T02:09:58;11.13;;;9.00;;
20531;SDS011;10424;52.102;8.084;2023-06-26T02:12:25;11.70;;;9.30;;
20531;SDS011;10424;52.102;8.084;2023-06-26T02:14:52;14.18;;;9.30;;
20531;SDS011;10424;52.102;8.084;2023-06-26T02:17:21;12.23;;;9.25;;
20531;SDS011;10424;52.102;8.084;2023-06-26T02:19:48;10.95;;;8.55;;
20531;SDS011;10424;52.102;8.084;2023-06-26T02:22:16;10.23;;;8.63;;
20531;SDS011;10424;52.102;8.084;2023-06-26T02:24:43;11.88;;;9.70;;
20531;SDS011;10424;52.102;8.084;2023-06-26T02:27:10;13.15;;;9.57;;
20531;SDS011;10424;52.102;8.084;2023-06-26T02:29:38;11.65;;;9.32;;
20531;SDS011;10424;52.102;8.084;2023-06-26T02:32:06;13.52;;;9.02;;
20531;SDS011;10424;52.102;8.084;2023-06-26T02:34:35;11.75;;;8.82;;
20531;SDS011;10424;52.102;8.084;2023-06-26T02:37:02;13.57;;;9.30;;
20531;SDS011;10424;52.102;8.084;2023-06-26T02:39:32;13.38;;;8.68;;
20531;SDS011;10424;52.102;8.084;2023-06-26T02:41:59;12.20;;;9.27;;
20531;SDS011;10424;52.102;8.084;2023-06-26T02:44:27;11.93;;;9.00;;
20531;SDS011;10424;52.102;8.084;2023-06-26T02:46:54;11.18;;;8.80;;
20531;SDS011;10424;52.102;8.084;2023-06-26T02:49:21;11.30;;;9.07;;
20531;SDS011;10424;52.102;8.084;2023-06-26T02:51:50;11.63;;;9.20;;
20531;SDS011;10424;52.102;8.084;2023-06-26T02:54:17;12.88;;;9.35;;
20531;SDS011;10424;52.102;8.084;2023-06-26T02:56:44;13.63;;;9.27;;
20531;SDS011;10424;52.102;8.084;2023-06-26T02:59:12;12.10;;;8.75;;
20531;SDS011;10424;52.102;8.084;2023-06-26T03:01:39;10.30;;;8.90;;
20531;SDS011;10424;52.102;8.084;2023-06-26T03:04:06;12.32;;;9.30;;
20531;SDS011;10424;52.102;8.084;2023-06-26T03:06:34;13.15;;;9.23;;
20531;SDS011;10424;52.102;8.084;2023-06-26T03:09:02;12.88;;;8.93;;
20531;SDS011;10424;52.102;8.084;2023-06-26T03:11:30;11.32;;;9.25;;
20531;SDS011;10424;52.102;8.084;2023-06-26T03:13:57;11.13;;;9.00;;
20531;SDS011;10424;52.102;8.084;2023-06-26T03:16:24;11.80;;;9.10;;
20531;SDS011;10424;52.102;8.084;2023-06-26T03:18:52;11.60;;;8.70;;
20531;SDS011;10424;52.102;8.084;2023-06-26T03:21:19;11.38;;;9.02;;
20531;SDS011;10424;52.102;8.084;2023-06-26T03:23:46;12.18;;;8.93;;
20531;SDS011;10424;52.102;8.084;2023-06-26T03:26:15;12.45;;;8.75;;
20531;SDS011;10424;52.102;8.084;2023-06-26T03:28:42;14.55;;;8.95;;
20531;SDS011;10424;52.102;8.084;2023-06-26T03:31:09;11.48;;;8.80;;
20531;SDS011;10424;52.102;8.084;2023-06-26T03:33:37;13.45;;;9.00;;
20531;SDS011;10424;52.102;8.084;2023-06-26T03:36:04;10.88;;;8.40;;
20531;SDS011;10424;52.102;8.084;2023-06-26T03:38:32;13.00;;;8.50;;
20531;SDS011;10424;52.102;8.084;2023-06-26T03:40:59;12.20;;;9.27;;
20531;SDS011;10424;52.102;8.084;2023-06-26T03:43:28;12.85;;;9.13;;
20531;SDS011;10424;52.102;8.084;2023-06-26T03:45:56;10.18;;;8.52;;
20531;SDS011;10424;52.102;8.084;2023-06-26T03:48:23;12.27;;;8.82;;
20531;SDS011;10424;52.102;8.084;2023-06-26T03:50:50;13.02;;;8.93;;
20531;SDS011;10424;52.102;8.084;2023-06-26T03:53:17;13.38;;;9.15;;
20531;SDS011;10424;52.102;8.084;2023-06-26T03:55:45;13.52;;;9.05;;
20531;SDS011;10424;52.102;8.084;2023-06-26T03:58:12;11.82;;;8.25;;
20531;SDS011;10424;52.102;8.084;2023-06-26T04:00:41;11.85;;;8.48;;
20531;SDS011;10424;52.102;8.084;2023-06-26T04:03:08;13.93;;;8.07;;
20531;SDS011;10424;52.102;8.084;2023-06-26T04:05:36;12.57;;;8.48;;
20531;SDS011;10424;52.102;8.084;2023-06-26T04:08:03;10.95;;;8.20;;
20531;SDS011;10424;52.102;8.084;2023-06-26T04:10:31;11.68;;;8.35;;
20531;SDS011;10424;52.102;8.084;2023-06-26T04:12:58;9.27;;;7.38;;
20531;SDS011;10424;52.102;8.084;2023-06-26T04:15:25;11.68;;;8.32;;
20531;SDS011;10424;52.102;8.084;2023-06-26T04:17:54;11.13;;;8.35;;
20531;SDS011;10424;52.102;8.084;2023-06-26T04:20:21;12.48;;;8.82;;
20531;SDS011;10424;52.102;8.084;2023-06-26T04:22:48;12.98;;;8.43;;
20531;SDS011;10424;52.102;8.084;2023-06-26T04:25:15;11.95;;;8.38;;
20531;SDS011;10424;52.102;8.084;2023-06-26T04:27:43;12.15;;;8.68;;
20531;SDS011;10424;52.102;8.084;2023-06-26T04:30:10;12.75;;;8.65;;
20531;SDS011;10424;52.102;8.084;2023-06-26T04:32:38;15.15;;;8.90;;
20531;SDS011;10424;52.102;8.084;2023-06-26T04:35:07;13.02;;;8.60;;
20531;SDS011;10424;52.102;8.084;2023-06-26T04:37:35;11.45;;;8.63;;
20531;SDS011;10424;52.102;8.084;2023-06-26T04:40:04;12.82;;;8.80;;
20531;SDS011;10424;52.102;8.084;2023-06-26T04:42:32;11.88;;;8.38;;
20531;SDS011;10424;52.102;8.084;2023-06-26T04:44:59;10.18;;;8.35;;
20531;SDS011;10424;52.102;8.084;2023-06-26T04:47:27;14.98;;;8.52;;
20531;SDS011;10424;52.102;8.084;2023-06-26T04:49:55;11.02;;;8.63;;
20531;SDS011;10424;52.102;8.084;2023-06-26T04:52:23;11.50;;;8.43;;
20531;SDS011;10424;52.102;8.084;2023-06-26T04:54:51;13.45;;;8.35;;
20531;SDS011;10424;52.102;8.084;2023-06-26T04:57:18;11.18;;;8.32;;
20531;SDS011;10424;52.102;8.084;2023-06-26T04:59:45;13.00;;;8.15;;
20531;SDS011;10424;52.102;8.084;2023-06-26T05:02:12;13.88;;;8.63;;
20531;SDS011;10424;52.102;8.084;2023-06-26T05:04:40;13.88;;;8.98;;
20531;SDS011;10424;52.102;8.084;2023-06-26T05:07:07;12.25;;;8.70;;
20531;SDS011;10424;52.102;8.084;2023-06-26T05:09:36;14.20;;;9.00;;
20531;SDS011;10424;52.102;8.084;2023-06-26T05:12:04;11.25;;;8.50;;
20531;SDS011;10424;52.102;8.084;2023-06-26T05:14:31;11.88;;;8.70;;
20531;SDS011;10424;52.102;8.084;2023-06-26T05:16:58;10.05;;;7.93;;
20531;SDS011;10424;52.102;8.084;2023-06-26T05:19:26;11.48;;;8.30;;
20531;SDS011;10424;52.102;8.084;2023-06-26T05:21:53;14.55;;;8.00;;
20531;SDS011;10424;52.102;8.084;2023-06-26T05:24:21;11.20;;;8.27;;
20531;SDS011;10424;52.102;8.084;2023-06-26T05:26:50;12.25;;;8.50;;
20531;SDS011;10424;52.102;8.084;2023-06-26T05:29:17;14.20;;;8.23;;
20531;SDS011;10424;52.102;8.084;2023-06-26T05:31:45;12.82;;;9.15;;
20531;SDS011;10424;52.102;8.084;2023-06-26T05:34:14;11.15;;;8.32;;
20531;SDS011;10424;52.102;8.084;2023-06-26T05:36:42;14.70;;;9.43;;
20531;SDS011;10424;52.102;8.084;2023-06-26T05:39:10;12.00;;;9.57;;
20531;SDS011;10424;52.102;8.084;2023-06-26T05:41:37;13.85;;;9.40;;
20531;SDS011;10424;52.102;8.084;2023-06-26T05:44:06;13.00;;;9.05;;
20531;SDS011;10424;52.102;8.084;2023-06-26T05:46:33;11.80;;;9.38;;
20531;SDS011;10424;52.102;8.084;2023-06-26T05:49:00;15.95;;;9.77;;
20531;SDS011;10424;52.102;8.084;2023-06-26T05:51:28;13.02;;;9.18;;
20531;SDS011;10424;52.102;8.084;2023-06-26T05:53:55;14.40;;;9.52;;
20531;SDS011;10424;52.102;8.084;2023-06-26T05:56:23;13.20;;;10.07;;
20531;SDS011;10424;52.102;8.084;2023-06-26T05:58:51;12.98;;;9.82;;
20531;SDS011;10424;52.102;8.084;2023-06-26T06:01:19;13.75;;;9.88;;
20531;SDS011;10424;52.102;8.084;2023-06-26T06:03:47;14.00;;;9.93;;
20531;SDS011;10424;52.102;8.084;2023-06-26T06:06:14;14.15;;;10.07;;
20531;SDS011;10424;52.102;8.084;2023-06-26T06:08:41;14.98;;;9.77;;
20531;SDS011;10424;52.102;8.084;2023-06-26T06:11:08;13.27;;;10.13;;
20531;SDS011;10424;52.102;8.084;2023-06-26T06:13:36;13.23;;;10.18;;
20531;SDS011;10424;52.102;8.084;2023-06-26T06:16:03;15.38;;;10.55;;
20531;SDS011;10424;52.102;8.084;2023-06-26T06:18:32;14.50;;;10.45;;
20531;SDS011;10424;52.102;8.084;2023-06-26T06:20:59;14.50;;;10.32;;
20531;SDS011;10424;52.102;8.084;2023-06-26T06:23:27;16.30;;;10.90;;
20531;SDS011;10424;52.102;8.084;2023-06-26T06:25:54;15.73;;;10.55;;
20531;SDS011;10424;52.102;8.084;2023-06-26T06:28:21;15.88;;;10.75;;
20531;SDS011;10424;52.102;8.084;2023-06-26T06:30:49;15.27;;;11.05;;
20531;SDS011;10424;52.102;8.084;2023-06-26T06:33:16;19.65;;;11.10;;
20531;SDS011;10424;52.102;8.084;2023-06-26T06:35:45;15.60;;;11.35;;
20531;SDS011;10424;52.102;8.084;2023-06-26T06:38:12;22.27;;;11.60;;
20531;SDS011;10424;52.102;8.084;2023-06-26T06:40:39;17.02;;;11.30;;
20531;SDS011;10424;52.102;8.084;2023-06-26T06:43:06;14.45;;;11.10;;
20531;SDS011;10424;52.102;8.084;2023-06-26T06:45:34;15.60;;;11.57;;
20531;SDS011;10424;52.102;8.084;2023-06-26T06:48:02;16.98;;;10.52;;
20531;SDS011;10424;52.102;8.084;2023-06-26T06:50:30;16.67;;;10.95;;
20531;SDS011;10424;52.102;8.084;2023-06-26T06:52:58;16.00;;;11.18;;
20531;SDS011;10424;52.102;8.084;2023-06-26T06:55:26;17.02;;;10.82;;
20531;SDS011;10424;52.102;8.084;2023-06-26T06:57:53;20.20;;;11.55;;
20531;SDS011;10424;52.102;8.084;2023-06-26T07:00:20;15.35;;;10.27;;
20531;SDS011;10424;52.102;8.084;2023-06-26T07:02:48;12.98;;;9.90;;
20531;SDS011;10424;52.102;8.084;2023-06-26T07:05:16;13.15;;;9.25;;
20531;SDS011;10424;52.102;8.084;2023-06-26T07:07:43;13.70;;;9.43;;
20531;SDS011;10424;52.102;8.084;2023-06-26T07:10:12;13.40;;;8.90;;
20531;SDS011;10424;52.102;8.084;2023-06-26T07:12:40;14.02;;;9.02;;
20531;SDS011;10424;52.102;8.084;2023-06-26T07:15:09;13.10;;;8.80;;
20531;SDS011;10424;52.102;8.084;2023-06-26T07:17:36;15.23;;;9.10;;
20531;SDS011;10424;52.102;8.084;2023-06-26T07:20:05;12.27;;;9.25;;
20531;SDS011;10424;52.102;8.084;2023-06-26T07:22:33;14.80;;;8.13;;
20531;SDS011;10424;52.102;8.084;2023-06-26T07:25:01;9.98;;;7.63;;
20531;SDS011;10424;52.102;8.084;2023-06-26T07:27:30;10.55;;;7.65;;
20531;SDS011;10424;52.102;8.084;2023-06-26T07:29:58;14.43;;;8.20;;
20531;SDS011;10424;52.102;8.084;2023-06-26T07:32:25;12.25;;;8.20;;
20531;SDS011;10424;52.102;8.084;2023-06-26T07:34:53;10.70;;;8.05;;
20531;SDS011;10424;52.102;8.084;2023-06-26T07:37:20;14.13;;;8.48;;
20531;SDS011;10424;52.102;8.084;2023-06-26T07:39:47;12.23;;;7.55;;
20531;SDS011;10424;52.102;8.084;2023-06-26T07:42:16;12.60;;;7.72;;
20531;SDS011;10424;52.102;8.084;2023-06-26T07:44:44;10.70;;;7.00;;
20531;SDS011;10424;52.102;8.084;2023-06-26T07:47:12;11.75;;;6.85;;
20531;SDS011;10424;52.102;8.084;2023-06-26T07:49:40;14.77;;;7.20;;
20531;SDS011;10424;52.102;8.084;2023-06-26T07:52:07;12.48;;;7.15;;
20531;SDS011;10424;52.102;8.084;2023-06-26T07:54:36;15.50;;;6.93;;
20531;SDS011;10424;52.102;8.084;2023-06-26T07:57:04;14.02;;;6.60;;
20531;SDS011;10424;52.102;8.084;2023-06-26T07:59:33;13.52;;;7.07;;
20531;SDS011;10424;52.102;8.084;2023-06-26T08:02:02;11.27;;;6.55;;
20531;SDS011;10424;52.102;8.084;2023-06-26T08:04:30;13.20;;;6.65;;
20531;SDS011;10424;52.102;8.084;2023-06-26T08:06:59;12.82;;;6.88;;
20531;SDS011;10424;52.102;8.084;2023-06-26T08:09:27;12.05;;;6.43;;
20531;SDS011;10424;52.102;8.084;2023-06-26T08:11:54;9.77;;;5.65;;
20531;SDS011;10424;52.102;8.084;2023-06-26T08:14:22;12.70;;;6.10;;
20531;SDS011;10424;52.102;8.084;2023-06-26T08:16:50;10.60;;;5.97;;
20531;SDS011;10424;52.102;8.084;2023-06-26T08:19:19;10.00;;;5.88;;
20531;SDS011;10424;52.102;8.084;2023-06-26T08:21:46;13.00;;;6.03;;
20531;SDS011;10424;52.102;8.084;2023-06-26T08:24:14;11.65;;;5.85;;
20531;SDS011;10424;52.102;8.084;2023-06-26T08:26:44;9.13;;;5.43;;
20531;SDS011;10424;52.102;8.084;2023-06-26T08:29:11;11.55;;;5.05;;
20531;SDS011;10424;52.102;8.084;2023-06-26T08:31:39;12.57;;;5.55;;
20531;SDS011;10424;52.102;8.084;2023-06-26T08:34:06;11.30;;;5.30;;
20531;SDS011;10424;52.102;8.084;2023-06-26T08:36:35;10.30;;;5.38;;
20531;SDS011;10424;52.102;8.084;2023-06-26T08:39:03;11.75;;;5.47;;
20531;SDS011;10424;52.102;8.084;2023-06-26T08:41:31;9.65;;;5.28;;
20531;SDS011;10424;52.102;8.084;2023-06-26T08:43:58;8.45;;;5.43;;
20531;SDS011;10424;52.102;8.084;2023-06-26T08:46:26;7.05;;;4.57;;
20531;SDS011;10424;52.102;8.084;2023-06-26T08:48:54;8.55;;;4.95;;
20531;SDS011;10424;52.102;8.084;2023-06-26T08:51:23;10.90;;;5.35;;
20531;SDS011;10424;52.102;8.084;2023-06-26T08:53:56;10.30;;;5.30;;
20531;SDS011;10424;52.102;8.084;2023-06-26T08:56:24;10.68;;;5.30;;
20531;SDS011;10424;52.102;8.084;2023-06-26T08:58:51;11.48;;;5.05;;
20531;SDS011;10424;52.102;8.084;2023-06-26T09:01:19;10.48;;;4.90;;
20531;SDS011;10424;52.102;8.084;2023-06-26T09:03:49;9.73;;;5.00;;
20531;SDS011;10424;52.102;8.084;2023-06-26T09:06:16;13.05;;;5.43;;
20531;SDS011;10424;52.102;8.084;2023-06-26T09:08:44;9.73;;;4.90;;
20531;SDS011;10424;52.102;8.084;2023-06-26T09:11:13;9.55;;;4.80;;
20531;SDS011;10424;52.102;8.084;2023-06-26T09:13:40;9.82;;;4.80;;
20531;SDS011;10424;52.102;8.084;2023-06-26T09:16:08;10.02;;;4.57;;
20531;SDS011;10424;52.102;8.084;2023-06-26T09:18:35;9.00;;;4.80;;
20531;SDS011;10424;52.102;8.084;2023-06-26T09:21:05;8.70;;;4.72;;
20531;SDS011;10424;52.102;8.084;2023-06-26T09:23:33;12.05;;;5.10;;
20531;SDS011;10424;52.102;8.084;2023-06-26T09:26:02;9.27;;;5.00;;
20531;SDS011;10424;52.102;8.084;2023-06-26T09:28:31;8.00;;;4.88;;
20531;SDS011;10424;52.102;8.084;2023-06-26T09:31:02;10.77;;;5.30;;
20531;SDS011;10424;52.102;8.084;2023-06-26T09:33:32;9.85;;;5.20;;
20531;SDS011;10424;52.102;8.084;2023-06-26T09:36:01;8.77;;;4.78;;
20531;SDS011;10424;52.102;8.084;2023-06-26T09:38:28;8.80;;;4.82;;
20531;SDS011;10424;52.102;8.084;2023-06-26T09:40:55;10.18;;;4.90;;
20531;SDS011;10424;52.102;8.084;2023-06-26T09:43:23;11.02;;;5.10;;
20531;SDS011;10424;52.102;8.084;2023-06-26T09:45:52;11.65;;;4.65;;
20531;SDS011;10424;52.102;8.084;2023-06-26T09:48:20;8.68;;;4.88;;
20531;SDS011;10424;52.102;8.084;2023-06-26T09:50:47;11.60;;;5.43;;
20531;SDS011;10424;52.102;8.084;2023-06-26T09:53:15;11.18;;;5.00;;
20531;SDS011;10424;52.102;8.084;2023-06-26T09:55:43;8.85;;;4.50;;
20531;SDS011;10424;52.102;8.084;2023-06-26T09:58:12;9.77;;;4.78;;
20531;SDS011;10424;52.102;8.084;2023-06-26T10:00:40;11.68;;;4.22;;
20531;SDS011;10424;52.102;8.084;2023-06-26T10:03:09;11.10;;;3.90;;
20531;SDS011;10424;52.102;8.084;2023-06-26T10:05:37;7.97;;;3.67;;
20531;SDS011;10424;52.102;8.084;2023-06-26T10:08:05;9.57;;;4.28;;
20531;SDS011;10424;52.102;8.084;2023-06-26T10:10:33;8.98;;;3.55;;
20531;SDS011;10424;52.102;8.084;2023-06-26T10:13:04;9.25;;;3.70;;
20531;SDS011;10424;52.102;8.084;2023-06-26T10:15:35;6.30;;;3.72;;
20531;SDS011;10424;52.102;8.084;2023-06-26T10:18:03;7.90;;;3.38;;
20531;SDS011;10424;52.102;8.084;2023-06-26T10:20:33;6.95;;;3.47;;
20531;SDS011;10424;52.102;8.084;2023-06-26T10:23:00;6.80;;;3.20;;
20531;SDS011;10424;52.102;8.084;2023-06-26T10:25:29;6.60;;;3.03;;
20531;SDS011;10424;52.102;8.084;2023-06-26T10:27:59;5.90;;;2.75;;
20531;SDS011;10424;52.102;8.084;2023-06-26T10:30:28;4.85;;;2.60;;
20531;SDS011;10424;52.102;8.084;2023-06-26T10:32:56;4.15;;;2.40;;
20531;SDS011;10424;52.102;8.084;2023-06-26T10:35:24;4.43;;;2.42;;
20531;SDS011;10424;52.102;8.084;2023-06-26T10:37:59;6.07;;;2.60;;
20531;SDS011;10424;52.102;8.084;2023-06-26T10:40:28;9.10;;;2.50;;
20531;SDS011;10424;52.102;8.084;2023-06-26T10:43:06;7.00;;;2.10;;
20531;SDS011;10424;52.102;8.084;2023-06-26T10:45:34;3.22;;;2.25;;
20531;SDS011;10424;52.102;8.084;2023-06-26T10:48:02;3.53;;;2.20;;
20531;SDS011;10424;52.102;8.084;2023-06-26T10:50:30;6.60;;;2.10;;
20531;SDS011;10424;52.102;8.084;2023-06-26T10:53:08;5.40;;;2.40;;
20531;SDS011;10424;52.102;8.084;2023-06-26T10:55:36;7.63;;;2.20;;
20531;SDS011;10424;52.102;8.084;2023-06-26T10:58:03;6.72;;;2.05;;
20531;SDS011;10424;52.102;8.084;2023-06-26T11:00:49;4.72;;;2.10;;
20531;SDS011;10424;52.102;8.084;2023-06-26T11:03:24;5.95;;;2.20;;
20531;SDS011;10424;52.102;8.084;2023-06-26T11:08:45;3.85;;;1.92;;
20531;SDS011;10424;52.102;8.084;2023-06-26T11:11:12;3.97;;;2.00;;
20531;SDS011;10424;52.102;8.084;2023-06-26T11:13:39;3.63;;;1.80;;
20531;SDS011;10424;52.102;8.084;2023-06-26T11:16:07;2.92;;;1.73;;
20531;SDS011;10424;52.102;8.084;2023-06-26T11:18:34;3.67;;;2.00;;
20531;SDS011;10424;52.102;8.084;2023-06-26T11:21:05;3.55;;;1.95;;
20531;SDS011;10424;52.102;8.084;2023-06-26T11:23:33;4.35;;;1.80;;
20531;SDS011;10424;52.102;8.084;2023-06-26T11:26:18;4.97;;;2.13;;
20531;SDS011;10424;52.102;8.084;2023-06-26T11:28:50;5.63;;;2.10;;
20531;SDS011;10424;52.102;8.084;2023-06-26T11:31:24;2.92;;;1.98;;
20531;SDS011;10424;52.102;8.084;2023-06-26T11:33:52;4.80;;;1.80;;
20531;SDS011;10424;52.102;8.084;2023-06-26T11:36:19;4.65;;;1.90;;
20531;SDS011;10424;52.102;8.084;2023-06-26T11:38:52;7.00;;;2.00;;
20531;SDS011;10424;52.102;8.084;2023-06-26T11:41:21;3.35;;;1.83;;
20531;SDS011;10424;52.102;8.084;2023-06-26T11:43:49;4.32;;;1.90;;
20531;SDS011;10424;52.102;8.084;2023-06-26T11:46:16;5.18;;;2.10;;
20531;SDS011;10424;52.102;8.084;2023-06-26T11:48:43;7.60;;;2.35;;
20531;SDS011;10424;52.102;8.084;2023-06-26T11:51:12;4.50;;;2.13;;
20531;SDS011;10424;52.102;8.084;2023-06-26T11:53:40;5.65;;;2.08;;
20531;SDS011;10424;52.102;8.084;2023-06-26T11:56:08;6.45;;;2.20;;
20531;SDS011;10424;52.102;8.084;2023-06-26T11:58:37;3.50;;;2.03;;
20531;SDS011;10424;52.102;8.084;2023-06-26T12:01:20;4.68;;;2.10;;
20531;SDS011;10424;52.102;8.084;2023-06-26T12:03:47;3.63;;;1.77;;
20531;SDS011;10424;52.102;8.084;2023-06-26T12:06:15;3.03;;;2.00;;
20531;SDS011;10424;52.102;8.084;2023-06-26T12:08:42;7.30;;;2.10;;
20531;SDS011;10424;52.102;8.084;2023-06-26T12:11:10;3.15;;;2.13;;
20531;SDS011;10424;52.102;8.084;2023-06-26T12:13:39;4.18;;;1.90;;
20531;SDS011;10424;52.102;8.084;2023-06-26T12:16:06;2.55;;;1.90;;
20531;SDS011;10424;52.102;8.084;2023-06-26T12:18:34;3.38;;;2.00;;
20531;SDS011;10424;52.102;8.084;2023-06-26T12:21:02;6.22;;;2.10;;
20531;SDS011;10424;52.102;8.084;2023-06-26T12:23:32;5.10;;;2.30;;
20531;SDS011;10424;52.102;8.084;2023-06-26T12:26:15;4.43;;;2.10;;
20531;SDS011;10424;52.102;8.084;2023-06-26T12:28:45;5.05;;;2.15;;
20531;SDS011;10424;52.102;8.084;2023-06-26T12:31:13;4.22;;;2.17;;
20531;SDS011;10424;52.102;8.084;2023-06-26T12:33:42;5.80;;;2.38;;
20531;SDS011;10424;52.102;8.084;2023-06-26T12:36:12;3.65;;;2.40;;
20531;SDS011;10424;52.102;8.084;2023-06-26T12:38:40;7.40;;;2.35;;
20531;SDS011;10424;52.102;8.084;2023-06-26T12:41:11;6.28;;;2.50;;
20531;SDS011;10424;52.102;8.084;2023-06-26T12:43:39;5.13;;;2.30;;
20531;SDS011;10424;52.102;8.084;2023-06-26T12:46:08;3.67;;;2.30;;
20531;SDS011;10424;52.102;8.084;2023-06-26T12:48:36;8.43;;;2.50;;
20531;SDS011;10424;52.102;8.084;2023-06-26T12:51:07;3.97;;;2.30;;
20531;SDS011;10424;52.102;8.084;2023-06-26T12:53:35;4.38;;;2.50;;
20531;SDS011;10424;52.102;8.084;2023-06-26T12:56:02;4.18;;;2.42;;
20531;SDS011;10424;52.102;8.084;2023-06-26T12:58:30;8.52;;;2.63;;
20531;SDS011;10424;52.102;8.084;2023-06-26T13:00:57;7.20;;;2.30;;
20531;SDS011;10424;52.102;8.084;2023-06-26T13:03:26;6.25;;;2.33;;
20531;SDS011;10424;52.102;8.084;2023-06-26T13:05:53;9.05;;;2.30;;
20531;SDS011;10424;52.102;8.084;2023-06-26T13:08:20;10.25;;;2.30;;
20531;SDS011;10424;52.102;8.084;2023-06-26T13:10:48;5.03;;;2.22;;
20531;SDS011;10424;52.102;8.084;2023-06-26T13:13:15;5.80;;;2.60;;
20531;SDS011;10424;52.102;8.084;2023-06-26T13:15:42;6.93;;;2.30;;
20531;SDS011;10424;52.102;8.084;2023-06-26T13:18:10;4.47;;;2.42;;
20531;SDS011;10424;52.102;8.084;2023-06-26T13:20:38;5.88;;;2.20;;
20531;SDS011;10424;52.102;8.084;2023-06-26T13:23:05;6.97;;;2.42;;
20531;SDS011;10424;52.102;8.084;2023-06-26T13:25:33;6.15;;;2.28;;
20531;SDS011;10424;52.102;8.084;2023-06-26T13:28:00;4.25;;;2.22;;
20531;SDS011;10424;52.102;8.084;2023-06-26T13:30:28;3.88;;;2.20;;
20531;SDS011;10424;52.102;8.084;2023-06-26T13:32:55;3.85;;;2.05;;
20531;SDS011;10424;52.102;8.084;2023-06-26T13:35:22;3.55;;;1.95;;
20531;SDS011;10424;52.102;8.084;2023-06-26T13:37:51;3.35;;;1.90;;
20531;SDS011;10424;52.102;8.084;2023-06-26T13:40:18;3.65;;;1.85;;
20531;SDS011;10424;52.102;8.084;2023-06-26T13:42:45;10.27;;;2.20;;
20531;SDS011;10424;52.102;8.084;2023-06-26T13:45:13;3.35;;;1.90;;
20531;SDS011;10424;52.102;8.084;2023-06-26T13:47:40;6.07;;;1.55;;
20531;SDS011;10424;52.102;8.084;2023-06-26T13:50:09;4.57;;;1.70;;
20531;SDS011;10424;52.102;8.084;2023-06-26T13:52:37;6.85;;;1.60;;
20531;SDS011;10424;52.102;8.084;2023-06-26T13:55:06;4.10;;;1.40;;
20531;SDS011;10424;52.102;8.084;2023-06-26T13:57:33;5.05;;;1.60;;
20531;SDS011;10424;52.102;8.084;2023-06-26T14:00:07;3.25;;;1.50;;
20531;SDS011;10424;52.102;8.084;2023-06-26T14:02:34;4.65;;;1.85;;
20531;SDS011;10424;52.102;8.084;2023-06-26T14:05:02;4.43;;;1.50;;
20531;SDS011;10424;52.102;8.084;2023-06-26T14:07:29;4.00;;;1.50;;
20531;SDS011;10424;52.102;8.084;2023-06-26T14:09:56;6.55;;;1.60;;
20531;SDS011;10424;52.102;8.084;2023-06-26T14:12:25;2.17;;;1.30;;
20531;SDS011;10424;52.102;8.084;2023-06-26T14:14:52;5.65;;;1.40;;
20531;SDS011;10424;52.102;8.084;2023-06-26T14:17:20;3.15;;;1.63;;
20531;SDS011;10424;52.102;8.084;2023-06-26T14:19:49;4.50;;;1.60;;
20531;SDS011;10424;52.102;8.084;2023-06-26T14:22:16;3.70;;;1.40;;
20531;SDS011;10424;52.102;8.084;2023-06-26T14:24:43;2.05;;;1.35;;
20531;SDS011;10424;52.102;8.084;2023-06-26T14:27:11;10.68;;;1.65;;
20531;SDS011;10424;52.102;8.084;2023-06-26T14:29:39;2.90;;;1.50;;
20531;SDS011;10424;52.102;8.084;2023-06-26T14:32:07;7.47;;;1.55;;
20531;SDS011;10424;52.102;8.084;2023-06-26T14:37:11;5.35;;;2.22;;
20531;SDS011;10424;52.102;8.084;2023-06-26T14:39:38;5.85;;;2.17;;
20531;SDS011;10424;52.102;8.084;2023-06-26T14:42:05;3.28;;;1.80;;
20531;SDS011;10424;52.102;8.084;2023-06-26T14:44:33;10.60;;;3.30;;
20531;SDS011;10424;52.102;8.084;2023-06-26T14:47:01;10.98;;;2.85;;
20531;SDS011;10424;52.102;8.084;2023-06-26T14:49:29;9.50;;;1.85;;